KLJ weather

Klaipėda Airport
Klaipėda, Klaipėda County, Lithuania

Public forecast

Using degrees Celsius for public forecast. Weather courtesy of forecast.io.

METAR (pilot weather report)

Closest report is Palanga International Airport, 16.5 nm (30.5 km) NNW. Retrieved 2019/04/23 15:20 UTC (36 minutes ago):

EYPA 231520Z 14011KT CAVOK 20/M04 Q1024

TAF (pilot weather forecast)

Closest forecast is Palanga International Airport, 16.5 nm (30.5 km) NNW. Retrieved 2019/04/23 12:03 UTC (4 hours ago):

TAF EYPA 231101Z 2312/2412 11014KT CAVOK TEMPO 2312/2316 15014G24KT TEMPO 2409/2412 15020G32KT